Aviation Digital Data Service (ADDS)

Output produced by METARs form (2010 UTC 20 August 2019)
found at http://www.aviationweather.gov/metar/data/
 
METAR text: TAPA 202000Z 07009KT 040V100 9999 FEW018 30/23 Q1015 NOSIG
Conditions at: TAPA (COOLIDGE/ANTIGUA, AG) observed 2000 UTC 20 August 2019
Temperature: 30.0°C (86°F)
Dewpoint: 23.0°C (73°F) [RH = 66%]
Pressure (altimeter): 29.97 inches Hg (1015.0 mb)
Winds: from the ENE (70 degrees) at 10 MPH (9 knots; 4.6 m/s)
Visibility: 6 or more miles (10+ km)
Ceiling: at least 12,000 feet AGL
Clouds: few clouds at 1800 feet AGL
Weather: no significant weather observed at this time

METAR text: TAPA 201900Z 08010KT 040V130 9999 FEW018TCU 30/23 Q1016 NOSIG
Conditions at: TAPA (COOLIDGE/ANTIGUA, AG) observed 1900 UTC 20 August 2019
Temperature: 30.0°C (86°F)
Dewpoint: 23.0°C (73°F) [RH = 66%]
Pressure (altimeter): 30.00 inches Hg (1016.0 mb)
Winds: from the E (80 degrees) at 12 MPH (10 knots; 5.1 m/s)
Visibility: 6 or more miles (10+ km)
Ceiling: at least 12,000 feet AGL
Clouds: few clouds at 1800 feet AGL
Weather: no significant weather observed at this time

METAR text: TAPA 201800Z 07009KT 040V140 9999 SCT017TCU 30/24 Q1016 NOSIG
Conditions at: TAPA (COOLIDGE/ANTIGUA, AG) observed 1800 UTC 20 August 2019
Temperature: 30.0°C (86°F)
Dewpoint: 24.0°C (75°F) [RH = 70%]
Pressure (altimeter): 30.00 inches Hg (1016.0 mb)
Winds: from the ENE (70 degrees) at 10 MPH (9 knots; 4.6 m/s)
Visibility: 6 or more miles (10+ km)
Ceiling: at least 12,000 feet AGL
Clouds: scattered clouds at 1700 feet AGL
Weather: no significant weather observed at this time

METAR text: TAPA 201700Z 08011KT 040V110 9999 SCT018 31/23 Q1017 NOSIG
Conditions at: TAPA (COOLIDGE/ANTIGUA, AG) observed 1700 UTC 20 August 2019
Temperature: 31.0°C (88°F)
Dewpoint: 23.0°C (73°F) [RH = 63%]
Pressure (altimeter): 30.03 inches Hg (1017.0 mb)
Winds: from the E (80 degrees) at 13 MPH (11 knots; 5.7 m/s)
Visibility: 6 or more miles (10+ km)
Ceiling: at least 12,000 feet AGL
Clouds: scattered clouds at 1800 feet AGL
Weather: no significant weather observed at this time

METAR text: TAPA 201600Z 03008KT 350V080 9999 VCSH SCT018 31/25 Q1017 NOSIG
Conditions at: TAPA (COOLIDGE/ANTIGUA, AG) observed 1600 UTC 20 August 2019
Temperature: 31.0°C (88°F)
Dewpoint: 25.0°C (77°F) [RH = 71%]
Pressure (altimeter): 30.03 inches Hg (1017.0 mb)
Winds: from the NNE (30 degrees) at 9 MPH (8 knots; 4.1 m/s)
Visibility: 6 or more miles (10+ km)
Ceiling: at least 12,000 feet AGL
Clouds: scattered clouds at 1800 feet AGL
Weather: VCSH  (showers in vicinity)

METAR text: TAPA 201500Z 08009KT 030V120 9999 SCT020 31/25 Q1018 NOSIG
Conditions at: TAPA (COOLIDGE/ANTIGUA, AG) observed 1500 UTC 20 August 2019
Temperature: 31.0°C (88°F)
Dewpoint: 25.0°C (77°F) [RH = 71%]
Pressure (altimeter): 30.06 inches Hg (1018.0 mb)
Winds: from the E (80 degrees) at 10 MPH (9 knots; 4.6 m/s)
Visibility: 6 or more miles (10+ km)
Ceiling: at least 12,000 feet AGL
Clouds: scattered clouds at 2000 feet AGL
Weather: no significant weather observed at this time

METAR text: TAPA 201400Z 08009KT 040V130 9999 FEW020 30/24 Q1017 NOSIG
Conditions at: TAPA (COOLIDGE/ANTIGUA, AG) observed 1400 UTC 20 August 2019
Temperature: 30.0°C (86°F)
Dewpoint: 24.0°C (75°F) [RH = 70%]
Pressure (altimeter): 30.03 inches Hg (1017.0 mb)
Winds: from the E (80 degrees) at 10 MPH (9 knots; 4.6 m/s)
Visibility: 6 or more miles (10+ km)
Ceiling: at least 12,000 feet AGL
Clouds: few clouds at 2000 feet AGL
Weather: no significant weather observed at this time

METAR text: TAPA 201300Z 06009KT 040V100 9999 VCSH SCT018 30/24 Q1017 NOSIG
Conditions at: TAPA (COOLIDGE/ANTIGUA, AG) observed 1300 UTC 20 August 2019
Temperature: 30.0°C (86°F)
Dewpoint: 24.0°C (75°F) [RH = 70%]
Pressure (altimeter): 30.03 inches Hg (1017.0 mb)
Winds: from the ENE (60 degrees) at 10 MPH (9 knots; 4.6 m/s)
Visibility: 6 or more miles (10+ km)
Ceiling: at least 12,000 feet AGL
Clouds: scattered clouds at 1800 feet AGL
Weather: VCSH  (showers in vicinity)

METAR text: TAPA 201200Z 07009KT 9999 VCSH SCT018 29/24 Q1017 NOSIG
Conditions at: TAPA (COOLIDGE/ANTIGUA, AG) observed 1200 UTC 20 August 2019
Temperature: 29.0°C (84°F)
Dewpoint: 24.0°C (75°F) [RH = 74%]
Pressure (altimeter): 30.03 inches Hg (1017.0 mb)
Winds: from the ENE (70 degrees) at 10 MPH (9 knots; 4.6 m/s)
Visibility: 6 or more miles (10+ km)
Ceiling: at least 12,000 feet AGL
Clouds: scattered clouds at 1800 feet AGL
Weather: VCSH  (showers in vicinity)

METAR text: TAPA 201100Z 08007KT 050V110 9999 FEW018 28/24 Q1016 NOSIG
Conditions at: TAPA (COOLIDGE/ANTIGUA, AG) observed 1100 UTC 20 August 2019
Temperature: 28.0°C (82°F)
Dewpoint: 24.0°C (75°F) [RH = 79%]
Pressure (altimeter): 30.00 inches Hg (1016.0 mb)
Winds: from the E (80 degrees) at 8 MPH (7 knots; 3.6 m/s)
Visibility: 6 or more miles (10+ km)
Ceiling: at least 12,000 feet AGL
Clouds: few clouds at 1800 feet AGL
Weather: no significant weather observed at this time

METAR text: TAPA 201000Z 08009KT 050V110 9999 SCT018 27/23 Q1016 NOSIG
Conditions at: TAPA (COOLIDGE/ANTIGUA, AG) observed 1000 UTC 20 August 2019
Temperature: 27.0°C (81°F)
Dewpoint: 23.0°C (73°F) [RH = 79%]
Pressure (altimeter): 30.00 inches Hg (1016.0 mb)
Winds: from the E (80 degrees) at 10 MPH (9 knots; 4.6 m/s)
Visibility: 6 or more miles (10+ km)
Ceiling: at least 12,000 feet AGL
Clouds: scattered clouds at 1800 feet AGL
Weather: no significant weather observed at this time

METAR text: TAPA 200900Z 09010KT 9999 SCT019 27/23 Q1015 NOSIG
Conditions at: TAPA (COOLIDGE/ANTIGUA, AG) observed 0900 UTC 20 August 2019
Temperature: 27.0°C (81°F)
Dewpoint: 23.0°C (73°F) [RH = 79%]
Pressure (altimeter): 29.97 inches Hg (1015.0 mb)
Winds: from the E (90 degrees) at 12 MPH (10 knots; 5.1 m/s)
Visibility: 6 or more miles (10+ km)
Ceiling: at least 12,000 feet AGL
Clouds: scattered clouds at 1900 feet AGL
Weather: no significant weather observed at this time

METAR text: TAPA 200800Z 07006KT 9999 FEW020 27/24 Q1015 NOSIG
Conditions at: TAPA (COOLIDGE/ANTIGUA, AG) observed 0800 UTC 20 August 2019
Temperature: 27.0°C (81°F)
Dewpoint: 24.0°C (75°F) [RH = 84%]
Pressure (altimeter): 29.97 inches Hg (1015.0 mb)
Winds: from the ENE (70 degrees) at 7 MPH (6 knots; 3.1 m/s)
Visibility: 6 or more miles (10+ km)
Ceiling: at least 12,000 feet AGL
Clouds: few clouds at 2000 feet AGL
Weather: no significant weather observed at this time

METAR text: TAPA 200700Z 08008KT 050V110 9999 FEW018 27/24 Q1015 NOSIG
Conditions at: TAPA (COOLIDGE/ANTIGUA, AG) observed 0700 UTC 20 August 2019
Temperature: 27.0°C (81°F)
Dewpoint: 24.0°C (75°F) [RH = 84%]
Pressure (altimeter): 29.97 inches Hg (1015.0 mb)
Winds: from the E (80 degrees) at 9 MPH (8 knots; 4.1 m/s)
Visibility: 6 or more miles (10+ km)
Ceiling: at least 12,000 feet AGL
Clouds: few clouds at 1800 feet AGL
Weather: no significant weather observed at this time

METAR text: TAPA 200600Z 09009KT 050V130 9999 FEW018 SCT036 28/23 Q1015 NOSIG
Conditions at: TAPA (COOLIDGE/ANTIGUA, AG) observed 0600 UTC 20 August 2019
Temperature: 28.0°C (82°F)
Dewpoint: 23.0°C (73°F) [RH = 74%]
Pressure (altimeter): 29.97 inches Hg (1015.0 mb)
Winds: from the E (90 degrees) at 10 MPH (9 knots; 4.6 m/s)
Visibility: 6 or more miles (10+ km)
Ceiling: at least 12,000 feet AGL
Clouds: few clouds at 1800 feet AGL
scattered clouds at 3600 feet AGL
Weather: no significant weather observed at this time

METAR text: TAPA 200500Z 09007KT 050V140 9999 BKN018 28/24 Q1016 NOSIG
Conditions at: TAPA (COOLIDGE/ANTIGUA, AG) observed 0500 UTC 20 August 2019
Temperature: 28.0°C (82°F)
Dewpoint: 24.0°C (75°F) [RH = 79%]
Pressure (altimeter): 30.00 inches Hg (1016.0 mb)
Winds: from the E (90 degrees) at 8 MPH (7 knots; 3.6 m/s)
Visibility: 6 or more miles (10+ km)
Ceiling: 1800 feet AGL
Clouds: broken clouds at 1800 feet AGL
Weather: no significant weather observed at this time

METAR text: TAPA 200400Z 08008KT 9999 FEW018 28/24 Q1016 NOSIG
Conditions at: TAPA (COOLIDGE/ANTIGUA, AG) observed 0400 UTC 20 August 2019
Temperature: 28.0°C (82°F)
Dewpoint: 24.0°C (75°F) [RH = 79%]
Pressure (altimeter): 30.00 inches Hg (1016.0 mb)
Winds: from the E (80 degrees) at 9 MPH (8 knots; 4.1 m/s)
Visibility: 6 or more miles (10+ km)
Ceiling: at least 12,000 feet AGL
Clouds: few clouds at 1800 feet AGL
Weather: no significant weather observed at this time

METAR text: TAPA 200300Z 08007KT 050V120 9999 FEW018 28/24 Q1017 NOSIG
Conditions at: TAPA (COOLIDGE/ANTIGUA, AG) observed 0300 UTC 20 August 2019
Temperature: 28.0°C (82°F)
Dewpoint: 24.0°C (75°F) [RH = 79%]
Pressure (altimeter): 30.03 inches Hg (1017.0 mb)
Winds: from the E (80 degrees) at 8 MPH (7 knots; 3.6 m/s)
Visibility: 6 or more miles (10+ km)
Ceiling: at least 12,000 feet AGL
Clouds: few clouds at 1800 feet AGL
Weather: no significant weather observed at this time

METAR text: TAPA 200200Z 08009KT 050V110 9999 FEW018 27/24 Q1017 NOSIG
Conditions at: TAPA (COOLIDGE/ANTIGUA, AG) observed 0200 UTC 20 August 2019
Temperature: 27.0°C (81°F)
Dewpoint: 24.0°C (75°F) [RH = 84%]
Pressure (altimeter): 30.03 inches Hg (1017.0 mb)
Winds: from the E (80 degrees) at 10 MPH (9 knots; 4.6 m/s)
Visibility: 6 or more miles (10+ km)
Ceiling: at least 12,000 feet AGL
Clouds: few clouds at 1800 feet AGL
Weather: no significant weather observed at this time

METAR text: TAPA 200100Z 08008KT 050V130 9999 -SHRA SCT018 28/24 Q1017 NOSIG
Conditions at: TAPA (COOLIDGE/ANTIGUA, AG) observed 0100 UTC 20 August 2019
Temperature: 28.0°C (82°F)
Dewpoint: 24.0°C (75°F) [RH = 79%]
Pressure (altimeter): 30.03 inches Hg (1017.0 mb)
Winds: from the E (80 degrees) at 9 MPH (8 knots; 4.1 m/s)
Visibility: 6 or more miles (10+ km)
Ceiling: at least 12,000 feet AGL
Clouds: scattered clouds at 1800 feet AGL
Weather: -SHRA  (light rain showers)

METAR text: TAPA 200000Z 07007KT 9999 FEW018 28/24 Q1016 NOSIG
Conditions at: TAPA (COOLIDGE/ANTIGUA, AG) observed 0000 UTC 20 August 2019
Temperature: 28.0°C (82°F)
Dewpoint: 24.0°C (75°F) [RH = 79%]
Pressure (altimeter): 30.00 inches Hg (1016.0 mb)
Winds: from the ENE (70 degrees) at 8 MPH (7 knots; 3.6 m/s)
Visibility: 6 or more miles (10+ km)
Ceiling: at least 12,000 feet AGL
Clouds: few clouds at 1800 feet AGL
Weather: no significant weather observed at this time

METAR text: TAPA 192300Z 08007KT 050V110 9999 SCT018 28/24 Q1016 NOSIG
Conditions at: TAPA (COOLIDGE/ANTIGUA, AG) observed 2300 UTC 19 August 2019
Temperature: 28.0°C (82°F)
Dewpoint: 24.0°C (75°F) [RH = 79%]
Pressure (altimeter): 30.00 inches Hg (1016.0 mb)
Winds: from the E (80 degrees) at 8 MPH (7 knots; 3.6 m/s)
Visibility: 6 or more miles (10+ km)
Ceiling: at least 12,000 feet AGL
Clouds: scattered clouds at 1800 feet AGL
Weather: no significant weather observed at this time

METAR text: TAPA 192200Z 08008KT 9999 FEW022 28/24 Q1016 NOSIG
Conditions at: TAPA (COOLIDGE/ANTIGUA, AG) observed 2200 UTC 19 August 2019
Temperature: 28.0°C (82°F)
Dewpoint: 24.0°C (75°F) [RH = 79%]
Pressure (altimeter): 30.00 inches Hg (1016.0 mb)
Winds: from the E (80 degrees) at 9 MPH (8 knots; 4.1 m/s)
Visibility: 6 or more miles (10+ km)
Ceiling: at least 12,000 feet AGL
Clouds: few clouds at 2200 feet AGL
Weather: no significant weather observed at this time

METAR text: TAPA 192100Z 09007KT 040V130 9999 SCT022 29/24 Q1016 NOSIG
Conditions at: TAPA (COOLIDGE/ANTIGUA, AG) observed 2100 UTC 19 August 2019
Temperature: 29.0°C (84°F)
Dewpoint: 24.0°C (75°F) [RH = 74%]
Pressure (altimeter): 30.00 inches Hg (1016.0 mb)
Winds: from the E (90 degrees) at 8 MPH (7 knots; 3.6 m/s)
Visibility: 6 or more miles (10+ km)
Ceiling: at least 12,000 feet AGL
Clouds: scattered clouds at 2200 feet AGL
Weather: no significant weather observed at this time

METAR text: TAPA 192000Z 08008KT 040V130 9999 SCT022 30/24 Q1016 NOSIG
Conditions at: TAPA (COOLIDGE/ANTIGUA, AG) observed 2000 UTC 19 August 2019
Temperature: 30.0°C (86°F)
Dewpoint: 24.0°C (75°F) [RH = 70%]
Pressure (altimeter): 30.00 inches Hg (1016.0 mb)
Winds: from the E (80 degrees) at 9 MPH (8 knots; 4.1 m/s)
Visibility: 6 or more miles (10+ km)
Ceiling: at least 12,000 feet AGL
Clouds: scattered clouds at 2200 feet AGL
Weather: no significant weather observed at this time

METAR text: TAPA 191900Z 08009KT 040V120 9999 SCT022 30/25 Q1016 NOSIG
Conditions at: TAPA (COOLIDGE/ANTIGUA, AG) observed 1900 UTC 19 August 2019
Temperature: 30.0°C (86°F)
Dewpoint: 25.0°C (77°F) [RH = 75%]
Pressure (altimeter): 30.00 inches Hg (1016.0 mb)
Winds: from the E (80 degrees) at 10 MPH (9 knots; 4.6 m/s)
Visibility: 6 or more miles (10+ km)
Ceiling: at least 12,000 feet AGL
Clouds: scattered clouds at 2200 feet AGL
Weather: no significant weather observed at this time

METAR text: TAPA 191800Z 08010KT 040V120 9999 FEW022 31/25 Q1016 NOSIG
Conditions at: TAPA (COOLIDGE/ANTIGUA, AG) observed 1800 UTC 19 August 2019
Temperature: 31.0°C (88°F)
Dewpoint: 25.0°C (77°F) [RH = 71%]
Pressure (altimeter): 30.00 inches Hg (1016.0 mb)
Winds: from the E (80 degrees) at 12 MPH (10 knots; 5.1 m/s)
Visibility: 6 or more miles (10+ km)
Ceiling: at least 12,000 feet AGL
Clouds: few clouds at 2200 feet AGL
Weather: no significant weather observed at this time

METAR text: TAPA 191700Z 09009KT 060V130 9999 FEW022 32/25 Q1017 NOSIG
Conditions at: TAPA (COOLIDGE/ANTIGUA, AG) observed 1700 UTC 19 August 2019
Temperature: 32.0°C (90°F)
Dewpoint: 25.0°C (77°F) [RH = 67%]
Pressure (altimeter): 30.03 inches Hg (1017.0 mb)
Winds: from the E (90 degrees) at 10 MPH (9 knots; 4.6 m/s)
Visibility: 6 or more miles (10+ km)
Ceiling: at least 12,000 feet AGL
Clouds: few clouds at 2200 feet AGL
Weather: no significant weather observed at this time

METAR text: TAPA 191600Z 09009KT 060V140 9999 FEW020 31/25 Q1017 NOSIG
Conditions at: TAPA (COOLIDGE/ANTIGUA, AG) observed 1600 UTC 19 August 2019
Temperature: 31.0°C (88°F)
Dewpoint: 25.0°C (77°F) [RH = 71%]
Pressure (altimeter): 30.03 inches Hg (1017.0 mb)
Winds: from the E (90 degrees) at 10 MPH (9 knots; 4.6 m/s)
Visibility: 6 or more miles (10+ km)
Ceiling: at least 12,000 feet AGL
Clouds: few clouds at 2000 feet AGL
Weather: no significant weather observed at this time

METAR text: TAPA 191500Z 09009KT 050V140 9999 SCT020 31/24 Q1017 NOSIG
Conditions at: TAPA (COOLIDGE/ANTIGUA, AG) observed 1500 UTC 19 August 2019
Temperature: 31.0°C (88°F)
Dewpoint: 24.0°C (75°F) [RH = 66%]
Pressure (altimeter): 30.03 inches Hg (1017.0 mb)
Winds: from the E (90 degrees) at 10 MPH (9 knots; 4.6 m/s)
Visibility: 6 or more miles (10+ km)
Ceiling: at least 12,000 feet AGL
Clouds: scattered clouds at 2000 feet AGL
Weather: no significant weather observed at this time

METAR text: TAPA 191400Z 09008KT 050V130 9999 FEW020 31/24 Q1017 NOSIG
Conditions at: TAPA (COOLIDGE/ANTIGUA, AG) observed 1400 UTC 19 August 2019
Temperature: 31.0°C (88°F)
Dewpoint: 24.0°C (75°F) [RH = 66%]
Pressure (altimeter): 30.03 inches Hg (1017.0 mb)
Winds: from the E (90 degrees) at 9 MPH (8 knots; 4.1 m/s)
Visibility: 6 or more miles (10+ km)
Ceiling: at least 12,000 feet AGL
Clouds: few clouds at 2000 feet AGL
Weather: no significant weather observed at this time

METAR text: TAPA 191300Z 11006KT 060V160 9999 FEW018 30/25 Q1017 NOSIG
Conditions at: TAPA (COOLIDGE/ANTIGUA, AG) observed 1300 UTC 19 August 2019
Temperature: 30.0°C (86°F)
Dewpoint: 25.0°C (77°F) [RH = 75%]
Pressure (altimeter): 30.03 inches Hg (1017.0 mb)
Winds: from the ESE (110 degrees) at 7 MPH (6 knots; 3.1 m/s)
Visibility: 6 or more miles (10+ km)
Ceiling: at least 12,000 feet AGL
Clouds: few clouds at 1800 feet AGL
Weather: no significant weather observed at this time

METAR text: TAPA 191200Z 13006KT 050V200 9999 FEW018 29/25 Q1016 NOSIG
Conditions at: TAPA (COOLIDGE/ANTIGUA, AG) observed 1200 UTC 19 August 2019
Temperature: 29.0°C (84°F)
Dewpoint: 25.0°C (77°F) [RH = 79%]
Pressure (altimeter): 30.00 inches Hg (1016.0 mb)
Winds: from the SE (130 degrees) at 7 MPH (6 knots; 3.1 m/s)
Visibility: 6 or more miles (10+ km)
Ceiling: at least 12,000 feet AGL
Clouds: few clouds at 1800 feet AGL
Weather: no significant weather observed at this time

METAR text: TAPA 191100Z 12005KT 060V160 9999 FEW017 28/24 Q1016 NOSIG
Conditions at: TAPA (COOLIDGE/ANTIGUA, AG) observed 1100 UTC 19 August 2019
Temperature: 28.0°C (82°F)
Dewpoint: 24.0°C (75°F) [RH = 79%]
Pressure (altimeter): 30.00 inches Hg (1016.0 mb)
Winds: from the ESE (120 degrees) at 6 MPH (5 knots; 2.6 m/s)
Visibility: 6 or more miles (10+ km)
Ceiling: at least 12,000 feet AGL
Clouds: few clouds at 1700 feet AGL
Weather: no significant weather observed at this time

METAR text: TAPA 191000Z 13003KT 100V170 9999 BKN016 27/24 Q1016 NOSIG
Conditions at: TAPA (COOLIDGE/ANTIGUA, AG) observed 1000 UTC 19 August 2019
Temperature: 27.0°C (81°F)
Dewpoint: 24.0°C (75°F) [RH = 84%]
Pressure (altimeter): 30.00 inches Hg (1016.0 mb)
Winds: from the SE (130 degrees) at 3 MPH (3 knots; 1.5 m/s)
Visibility: 6 or more miles (10+ km)
Ceiling: 1600 feet AGL
Clouds: broken clouds at 1600 feet AGL
Weather: no significant weather observed at this time

METAR text: TAPA 190900Z 14005KT 080V200 9999 -SHRA BKN016 28/24 Q1015 NOSIG
Conditions at: TAPA (COOLIDGE/ANTIGUA, AG) observed 0900 UTC 19 August 2019
Temperature: 28.0°C (82°F)
Dewpoint: 24.0°C (75°F) [RH = 79%]
Pressure (altimeter): 29.97 inches Hg (1015.0 mb)
Winds: from the SE (140 degrees) at 6 MPH (5 knots; 2.6 m/s)
Visibility: 6 or more miles (10+ km)
Ceiling: 1600 feet AGL
Clouds: broken clouds at 1600 feet AGL
Weather: -SHRA  (light rain showers)

Forecast for: TAPA (COOLIDGE/ANTIGUA, AG)
Text: TAF TAPA 201700Z 2018/2118 07008KT 9999 SCT021
Forecast period: 1800 UTC 20 August 2019 to 1800 UTC 21 August 2019
Forecast type: FROM: standard forecast or significant change
Winds: from the ENE (70 degrees) at 9 MPH (8 knots; 4.1 m/s)
Visibility: 6 or more miles 10+ km)
Ceiling: at least 12,000 feet AGL
Clouds: scattered clouds at 2100 feet AGL
Weather: no significant weather forecast for this period
Text: PROB30
Forecast period: 0000 to 1200 UTC 21 August 2019
Forecast type: TEMPORARY: The following changes expected for less than half the time period
Visibility: missing
Ceiling: unknown
Clouds: missing
Weather: SHRA  (rain showers)